TKJ743 LTCG-LTCW
Flight info
| Callsign | TKJ743 |
|---|---|
| Flight time | 1h 33m |
| Altitude | 37000 |
| Route | BAVTI1A BAVTI UW71 MUS/N0456F360 UW73 TAMER/N0449F370 UG8 NARLI L614 DEKOP DEKOP1G |
| Aircraft | B738/M-SDGIJ1LRWY/SB1 |
Departure
| Time | 2026-04-25 10:16 |
|---|---|
| Airport | Trabzon International Airport (LTCG) |
Arrival
| Time | 2026-04-25 11:50 |
|---|---|
| Airport | Hakkari Yüksekova Airport (LTCW) |
| Time | Latitude | Longitude | Altitude | Speed | Heading |
|---|---|---|---|---|---|
| 2026-04-25 09:44 | 40.99462 | 39.78417 | 112 ft | 0 kts | 202° |
| 2026-04-25 09:58 | 40.99462 | 39.78418 | 112 ft | 0 kts | 202° |
| 2026-04-25 09:58 | 40.99462 | 39.78417 | 112 ft | 0 kts | 202° |
| 2026-04-25 09:59 | 40.99462 | 39.78418 | 112 ft | 0 kts | 202° |
| 2026-04-25 10:06 | 40.99473 | 39.78423 | 112 ft | 2 kts | 202° |
| 2026-04-25 10:06 | 40.99487 | 39.78431 | 112 ft | 2 kts | 202° |
| 2026-04-25 10:07 | 40.99501 | 39.78438 | 112 ft | 2 kts | 202° |
| 2026-04-25 10:07 | 40.99514 | 39.78447 | 112 ft | 2 kts | 235° |
| 2026-04-25 10:07 | 40.99518 | 39.78466 | 112 ft | 2 kts | 276° |
| 2026-04-25 10:07 | 40.99517 | 39.78476 | 112 ft | 1 kts | 298° |
| 2026-04-25 10:08 | 40.99514 | 39.78482 | 112 ft | 0 kts | 294° |
| 2026-04-25 10:10 | 40.99520 | 39.78462 | 112 ft | 2 kts | 295° |
| 2026-04-25 10:10 | 40.99526 | 39.78448 | 112 ft | 1 kts | 295° |
| 2026-04-25 10:11 | 40.99530 | 39.78434 | 112 ft | 3 kts | 295° |
| 2026-04-25 10:11 | 40.99543 | 39.78396 | 112 ft | 3 kts | 294° |
| 2026-04-25 10:11 | 40.99551 | 39.78372 | 112 ft | 2 kts | 291° |
| 2026-04-25 10:11 | 40.99566 | 39.78318 | 112 ft | 10 kts | 291° |
| 2026-04-25 10:12 | 40.99605 | 39.78185 | 112 ft | 19 kts | 291° |
| 2026-04-25 10:12 | 40.99651 | 39.78033 | 112 ft | 16 kts | 292° |
| 2026-04-25 10:12 | 40.99725 | 39.77796 | 112 ft | 13 kts | 292° |
| 2026-04-25 10:13 | 40.99756 | 39.77696 | 112 ft | 10 kts | 292° |
| 2026-04-25 10:13 | 40.99784 | 39.77602 | 112 ft | 9 kts | 292° |
| 2026-04-25 10:13 | 40.99806 | 39.77533 | 112 ft | 6 kts | 299° |
| 2026-04-25 10:13 | 40.99831 | 39.77497 | 112 ft | 3 kts | 324° |
| 2026-04-25 10:14 | 40.99851 | 39.77489 | 112 ft | 0 kts | 357° |
| 2026-04-25 10:15 | 40.99857 | 39.77489 | 112 ft | 2 kts | 1° |
| 2026-04-25 10:15 | 40.99895 | 39.77502 | 112 ft | 8 kts | 23° |
| 2026-04-25 10:15 | 40.99938 | 39.77534 | 112 ft | 6 kts | 46° |
| 2026-04-25 10:15 | 40.99936 | 39.77588 | 112 ft | 7 kts | 113° |
| 2026-04-25 10:16 | 40.99867 | 39.77806 | 112 ft | 55 kts | 113° |
| 2026-04-25 10:16 | 40.99639 | 39.78540 | 112 ft | 114 kts | 112° |
| 2026-04-25 10:16 | 40.99271 | 39.79719 | 188 ft | 154 kts | 112° |
| 2026-04-25 10:16 | 40.98898 | 39.80959 | 797 ft | 151 kts | 104° |
| 2026-04-25 10:17 | 40.98958 | 39.82382 | 1301 ft | 157 kts | 77° |
| 2026-04-25 10:17 | 40.99035 | 39.83825 | 1756 ft | 165 kts | 98° |
| 2026-04-25 10:17 | 40.98760 | 39.85321 | 2157 ft | 177 kts | 103° |
| 2026-04-25 10:17 | 40.98487 | 39.86986 | 2524 ft | 192 kts | 98° |
| 2026-04-25 10:18 | 40.98283 | 39.88783 | 2921 ft | 207 kts | 96° |
| 2026-04-25 10:18 | 40.98098 | 39.90744 | 3377 ft | 220 kts | 96° |
| 2026-04-25 10:18 | 40.97890 | 39.92821 | 3758 ft | 238 kts | 98° |
| 2026-04-25 10:18 | 40.97625 | 39.95021 | 4226 ft | 251 kts | 99° |
| 2026-04-25 10:19 | 40.97344 | 39.97346 | 4790 ft | 260 kts | 99° |
| 2026-04-25 10:19 | 40.97073 | 39.99699 | 5439 ft | 265 kts | 99° |
| 2026-04-25 10:19 | 40.96796 | 40.02155 | 6120 ft | 270 kts | 99° |
| 2026-04-25 10:19 | 40.96521 | 40.04605 | 6782 ft | 275 kts | 99° |
| 2026-04-25 10:20 | 40.96242 | 40.07094 | 7474 ft | 280 kts | 99° |
| 2026-04-25 10:20 | 40.95952 | 40.09675 | 8140 ft | 285 kts | 99° |
| 2026-04-25 10:20 | 40.95559 | 40.12225 | 8843 ft | 289 kts | 108° |
| 2026-04-25 10:20 | 40.94671 | 40.14571 | 9508 ft | 292 kts | 128° |
| 2026-04-25 10:21 | 40.93212 | 40.16439 | 10153 ft | 295 kts | 146° |
| 2026-04-25 10:21 | 40.91420 | 40.17862 | 10585 ft | 308 kts | 158° |
| 2026-04-25 10:21 | 40.89354 | 40.18785 | 10973 ft | 321 kts | 168° |
| 2026-04-25 10:21 | 40.87140 | 40.19441 | 11342 ft | 336 kts | 171° |
| 2026-04-25 10:22 | 40.84797 | 40.20056 | 11714 ft | 352 kts | 171° |
| 2026-04-25 10:22 | 40.83166 | 40.20488 | 11942 ft | 363 kts | 171° |
| 2026-04-25 10:22 | 40.79791 | 40.21426 | 12532 ft | 379 kts | 170° |
| 2026-04-25 10:22 | 40.77184 | 40.22183 | 13188 ft | 386 kts | 170° |
| 2026-04-25 10:23 | 40.74543 | 40.22966 | 13828 ft | 393 kts | 170° |
| 2026-04-25 10:23 | 40.71891 | 40.23759 | 14596 ft | 396 kts | 169° |
| 2026-04-25 10:23 | 40.69209 | 40.24703 | 15382 ft | 402 kts | 164° |
| 2026-04-25 10:23 | 40.66642 | 40.26149 | 16085 ft | 409 kts | 153° |
| 2026-04-25 10:24 | 40.64307 | 40.28273 | 16801 ft | 415 kts | 141° |
| 2026-04-25 10:24 | 40.62172 | 40.30841 | 17482 ft | 421 kts | 136° |
| 2026-04-25 10:24 | 40.60094 | 40.33602 | 18184 ft | 425 kts | 134° |
| 2026-04-25 10:24 | 40.58044 | 40.36442 | 18872 ft | 429 kts | 134° |
| 2026-04-25 10:25 | 40.56019 | 40.39281 | 19553 ft | 432 kts | 134° |
| 2026-04-25 10:25 | 40.53937 | 40.42179 | 20183 ft | 437 kts | 134° |
| 2026-04-25 10:25 | 40.51857 | 40.45052 | 20806 ft | 440 kts | 135° |
| 2026-04-25 10:25 | 40.49715 | 40.47988 | 21429 ft | 444 kts | 135° |
| 2026-04-25 10:26 | 40.47596 | 40.50879 | 22035 ft | 447 kts | 135° |
| 2026-04-25 10:26 | 40.45422 | 40.53837 | 22606 ft | 450 kts | 135° |
| 2026-04-25 10:26 | 40.43243 | 40.56795 | 23166 ft | 454 kts | 135° |
| 2026-04-25 10:26 | 40.41045 | 40.59770 | 23724 ft | 457 kts | 135° |
| 2026-04-25 10:27 | 40.38834 | 40.62758 | 24236 ft | 462 kts | 135° |
| 2026-04-25 10:27 | 40.36602 | 40.65769 | 24768 ft | 465 kts | 136° |
| 2026-04-25 10:27 | 40.34338 | 40.68823 | 25266 ft | 469 kts | 136° |
| 2026-04-25 10:27 | 40.32049 | 40.71909 | 25730 ft | 473 kts | 136° |
| 2026-04-25 10:28 | 40.29768 | 40.74980 | 26131 ft | 479 kts | 136° |
| 2026-04-25 10:28 | 40.27444 | 40.78107 | 26652 ft | 481 kts | 136° |
| 2026-04-25 10:28 | 40.25103 | 40.81253 | 27106 ft | 485 kts | 137° |
| 2026-04-25 10:28 | 40.22755 | 40.84407 | 27536 ft | 489 kts | 137° |
| 2026-04-25 10:29 | 40.20369 | 40.87615 | 27938 ft | 493 kts | 137° |
| 2026-04-25 10:29 | 40.17983 | 40.90823 | 28441 ft | 495 kts | 137° |
| 2026-04-25 10:29 | 40.15609 | 40.94017 | 29135 ft | 492 kts | 137° |
| 2026-04-25 10:29 | 40.13215 | 40.97238 | 29844 ft | 488 kts | 137° |
| 2026-04-25 10:30 | 40.10883 | 41.00370 | 30492 ft | 485 kts | 138° |
| 2026-04-25 10:30 | 40.09314 | 41.02473 | 30947 ft | 482 kts | 139° |
| 2026-04-25 10:30 | 40.06202 | 41.06638 | 31525 ft | 484 kts | 139° |
| 2026-04-25 10:30 | 40.03844 | 41.09783 | 31743 ft | 490 kts | 139° |
| 2026-04-25 10:31 | 40.01465 | 41.12955 | 32186 ft | 490 kts | 139° |
| 2026-04-25 10:31 | 39.99047 | 41.16120 | 32691 ft | 488 kts | 141° |
| 2026-04-25 10:31 | 39.96501 | 41.19052 | 33261 ft | 480 kts | 147° |
| 2026-04-25 10:31 | 39.93792 | 41.21607 | 33769 ft | 473 kts | 153° |
| 2026-04-25 10:32 | 39.90939 | 41.23746 | 34181 ft | 467 kts | 160° |
| 2026-04-25 10:32 | 39.87962 | 41.25457 | 34610 ft | 460 kts | 166° |
| 2026-04-25 10:32 | 39.84946 | 41.26668 | 34993 ft | 452 kts | 173° |
| 2026-04-25 10:32 | 39.81868 | 41.27552 | 35370 ft | 448 kts | 175° |
| 2026-04-25 10:33 | 39.78838 | 41.28327 | 35777 ft | 445 kts | 176° |
| 2026-04-25 10:33 | 39.75808 | 41.29125 | 36200 ft | 442 kts | 175° |
| 2026-04-25 10:33 | 39.72822 | 41.29973 | 36656 ft | 440 kts | 174° |
| 2026-04-25 10:33 | 39.69850 | 41.30888 | 37129 ft | 438 kts | 173° |
| 2026-04-25 10:34 | 39.66881 | 41.31857 | 37141 ft | 445 kts | 173° |
| 2026-04-25 10:34 | 39.60875 | 41.33955 | 37140 ft | 446 kts | 171° |
| 2026-04-25 10:35 | 39.54959 | 41.36132 | 37142 ft | 446 kts | 171° |
| 2026-04-25 10:35 | 39.49035 | 41.38532 | 37142 ft | 448 kts | 169° |
| 2026-04-25 10:36 | 39.43106 | 41.40993 | 37144 ft | 446 kts | 170° |
| 2026-04-25 10:36 | 39.37139 | 41.43250 | 37145 ft | 445 kts | 172° |
| 2026-04-25 10:37 | 39.31192 | 41.45341 | 37144 ft | 444 kts | 172° |
| 2026-04-25 10:37 | 39.25223 | 41.47493 | 37142 ft | 445 kts | 171° |
| 2026-04-25 10:38 | 39.19276 | 41.49720 | 37142 ft | 446 kts | 171° |
| 2026-04-25 10:38 | 39.13347 | 41.51955 | 37147 ft | 445 kts | 171° |
| 2026-04-25 10:39 | 39.07409 | 41.54188 | 37154 ft | 446 kts | 171° |
| 2026-04-25 10:39 | 39.01463 | 41.56399 | 37149 ft | 446 kts | 171° |
| 2026-04-25 10:40 | 38.95519 | 41.58588 | 37140 ft | 444 kts | 171° |
| 2026-04-25 10:40 | 38.89595 | 41.60762 | 37141 ft | 444 kts | 171° |
| 2026-04-25 10:41 | 38.83614 | 41.62418 | 37137 ft | 433 kts | 182° |
| 2026-04-25 10:41 | 38.80662 | 41.62362 | 37137 ft | 423 kts | 193° |
| 2026-04-25 10:41 | 38.77776 | 41.61618 | 37140 ft | 414 kts | 202° |
| 2026-04-25 10:42 | 38.72504 | 41.58920 | 37141 ft | 406 kts | 213° |
| 2026-04-25 10:42 | 38.68117 | 41.54562 | 37145 ft | 395 kts | 230° |
| 2026-04-25 10:43 | 38.64652 | 41.49187 | 37148 ft | 393 kts | 234° |
| 2026-04-25 10:43 | 38.61327 | 41.43637 | 37146 ft | 393 kts | 234° |
| 2026-04-25 10:44 | 38.58033 | 41.38106 | 37145 ft | 393 kts | 235° |
| 2026-04-25 10:44 | 38.54767 | 41.32526 | 37139 ft | 393 kts | 235° |
| 2026-04-25 10:45 | 38.51478 | 41.26903 | 37142 ft | 394 kts | 235° |
| 2026-04-25 10:45 | 38.48203 | 41.21325 | 37138 ft | 394 kts | 235° |
| 2026-04-25 10:46 | 38.44919 | 41.15763 | 37129 ft | 394 kts | 235° |
| 2026-04-25 10:46 | 38.41608 | 41.10186 | 37122 ft | 395 kts | 234° |
| 2026-04-25 10:47 | 38.38253 | 41.04644 | 37114 ft | 396 kts | 234° |
| 2026-04-25 10:47 | 38.34886 | 40.99114 | 37107 ft | 395 kts | 234° |
| 2026-04-25 10:48 | 38.31533 | 40.93609 | 37106 ft | 395 kts | 234° |
| 2026-04-25 10:48 | 38.28170 | 40.88099 | 37104 ft | 396 kts | 233° |
| 2026-04-25 10:49 | 38.24137 | 40.83313 | 37097 ft | 402 kts | 217° |
| 2026-04-25 10:49 | 38.19021 | 40.80369 | 37097 ft | 411 kts | 204° |
| 2026-04-25 10:50 | 38.13310 | 40.79099 | 37084 ft | 425 kts | 186° |
| 2026-04-25 10:50 | 38.07433 | 40.80286 | 37074 ft | 440 kts | 171° |
| 2026-04-25 10:51 | 38.01805 | 40.83626 | 37064 ft | 457 kts | 151° |
| 2026-04-25 10:51 | 37.97234 | 40.89398 | 37063 ft | 473 kts | 133° |
| 2026-04-25 10:51 | 37.95439 | 40.92903 | 37069 ft | 481 kts | 122° |
| 2026-04-25 10:52 | 37.94186 | 40.96827 | 37067 ft | 488 kts | 110° |
| 2026-04-25 10:52 | 37.93538 | 41.01062 | 37074 ft | 494 kts | 99° |
| 2026-04-25 10:52 | 37.93373 | 41.05425 | 37078 ft | 498 kts | 91° |
| 2026-04-25 10:52 | 37.93720 | 41.09734 | 37079 ft | 501 kts | 79° |
| 2026-04-25 10:53 | 37.94781 | 41.13925 | 37087 ft | 502 kts | 66° |
| 2026-04-25 10:53 | 37.97638 | 41.22005 | 37088 ft | 502 kts | 66° |
| 2026-04-25 10:54 | 38.00427 | 41.30103 | 37084 ft | 502 kts | 66° |
| 2026-04-25 10:54 | 38.02648 | 41.38399 | 37082 ft | 501 kts | 82° |
| 2026-04-25 10:55 | 38.02779 | 41.47145 | 37086 ft | 495 kts | 100° |
| 2026-04-25 10:55 | 38.01253 | 41.55554 | 37078 ft | 490 kts | 111° |
| 2026-04-25 10:56 | 37.98940 | 41.63602 | 37080 ft | 485 kts | 116° |
| 2026-04-25 10:56 | 37.96423 | 41.71492 | 37074 ft | 484 kts | 117° |
| 2026-04-25 10:57 | 37.93880 | 41.79396 | 37083 ft | 485 kts | 117° |
| 2026-04-25 10:57 | 37.91541 | 41.87333 | 37096 ft | 489 kts | 110° |
| 2026-04-25 10:58 | 37.90304 | 41.95879 | 37120 ft | 496 kts | 99° |
| 2026-04-25 10:58 | 37.89753 | 42.04563 | 37127 ft | 497 kts | 96° |
| 2026-04-25 10:59 | 37.89341 | 42.13196 | 37131 ft | 496 kts | 96° |
| 2026-04-25 10:59 | 37.89115 | 42.17583 | 36836 ft | 494 kts | 97° |
| 2026-04-25 10:59 | 37.88878 | 42.21835 | 36751 ft | 489 kts | 97° |
| 2026-04-25 10:59 | 37.88624 | 42.26133 | 35961 ft | 492 kts | 97° |
| 2026-04-25 11:00 | 37.88357 | 42.30406 | 35180 ft | 493 kts | 98° |
| 2026-04-25 11:00 | 37.88064 | 42.34744 | 34402 ft | 494 kts | 98° |
| 2026-04-25 11:00 | 37.87747 | 42.39031 | 33635 ft | 496 kts | 98° |
| 2026-04-25 11:00 | 37.87440 | 42.43411 | 32823 ft | 498 kts | 98° |
| 2026-04-25 11:01 | 37.87149 | 42.47711 | 32019 ft | 500 kts | 97° |
| 2026-04-25 11:01 | 37.86857 | 42.52120 | 31169 ft | 502 kts | 97° |
| 2026-04-25 11:01 | 37.86569 | 42.56515 | 30286 ft | 505 kts | 97° |
| 2026-04-25 11:01 | 37.86270 | 42.60935 | 29446 ft | 505 kts | 97° |
| 2026-04-25 11:02 | 37.85975 | 42.65281 | 28969 ft | 498 kts | 97° |
| 2026-04-25 11:02 | 37.85675 | 42.69623 | 28434 ft | 491 kts | 97° |
| 2026-04-25 11:02 | 37.85377 | 42.73904 | 27872 ft | 486 kts | 97° |
| 2026-04-25 11:02 | 37.85078 | 42.78117 | 27315 ft | 481 kts | 97° |
| 2026-04-25 11:03 | 37.84780 | 42.82244 | 26756 ft | 476 kts | 97° |
| 2026-04-25 11:03 | 37.84479 | 42.86413 | 26187 ft | 471 kts | 97° |
| 2026-04-25 11:03 | 37.84184 | 42.90488 | 25634 ft | 466 kts | 97° |
| 2026-04-25 11:03 | 37.83888 | 42.94514 | 25076 ft | 461 kts | 97° |
| 2026-04-25 11:04 | 37.83590 | 42.98535 | 24506 ft | 456 kts | 97° |
| 2026-04-25 11:04 | 37.83295 | 43.02481 | 23953 ft | 451 kts | 97° |
| 2026-04-25 11:04 | 37.83000 | 43.06385 | 23404 ft | 445 kts | 97° |
| 2026-04-25 11:04 | 37.82806 | 43.08928 | 23047 ft | 442 kts | 97° |
| 2026-04-25 11:05 | 37.82415 | 43.14057 | 22329 ft | 437 kts | 97° |
| 2026-04-25 11:05 | 37.82124 | 43.17863 | 21780 ft | 433 kts | 97° |
| 2026-04-25 11:05 | 37.81836 | 43.21615 | 21237 ft | 429 kts | 96° |
| 2026-04-25 11:05 | 37.81552 | 43.25318 | 20694 ft | 426 kts | 96° |
| 2026-04-25 11:06 | 37.81283 | 43.29048 | 20138 ft | 423 kts | 96° |
| 2026-04-25 11:06 | 37.81035 | 43.32714 | 19594 ft | 420 kts | 95° |
| 2026-04-25 11:06 | 37.80799 | 43.36373 | 19051 ft | 417 kts | 95° |
| 2026-04-25 11:06 | 37.80571 | 43.39969 | 18503 ft | 414 kts | 95° |
| 2026-04-25 11:07 | 37.80342 | 43.43579 | 17951 ft | 411 kts | 95° |
| 2026-04-25 11:07 | 37.80113 | 43.47143 | 17403 ft | 408 kts | 96° |
| 2026-04-25 11:07 | 37.79882 | 43.50698 | 16855 ft | 406 kts | 96° |
| 2026-04-25 11:07 | 37.79650 | 43.54222 | 16300 ft | 403 kts | 96° |
| 2026-04-25 11:08 | 37.79414 | 43.57756 | 15746 ft | 400 kts | 96° |
| 2026-04-25 11:08 | 37.79179 | 43.61238 | 15113 ft | 400 kts | 96° |
| 2026-04-25 11:08 | 37.78944 | 43.64697 | 14494 ft | 399 kts | 96° |
| 2026-04-25 11:08 | 37.78707 | 43.68190 | 13930 ft | 396 kts | 97° |
| 2026-04-25 11:09 | 37.78471 | 43.71624 | 13366 ft | 394 kts | 97° |
| 2026-04-25 11:09 | 37.78234 | 43.75077 | 12810 ft | 391 kts | 97° |
| 2026-04-25 11:09 | 37.78002 | 43.78456 | 12521 ft | 381 kts | 97° |
| 2026-04-25 11:09 | 37.77776 | 43.81735 | 12528 ft | 377 kts | 97° |
| 2026-04-25 11:10 | 37.77551 | 43.85015 | 12523 ft | 370 kts | 97° |
| 2026-04-25 11:10 | 37.77402 | 43.87133 | 12519 ft | 354 kts | 97° |
| 2026-04-25 11:10 | 37.77028 | 43.91061 | 12513 ft | 325 kts | 105° |
| 2026-04-25 11:10 | 37.76323 | 43.93701 | 12514 ft | 313 kts | 123° |
| 2026-04-25 11:11 | 37.74972 | 43.95808 | 12523 ft | 305 kts | 143° |
| 2026-04-25 11:11 | 37.73367 | 43.97507 | 12506 ft | 298 kts | 147° |
| 2026-04-25 11:11 | 37.71774 | 43.99115 | 12281 ft | 289 kts | 146° |
| 2026-04-25 11:11 | 37.70232 | 44.00760 | 11746 ft | 293 kts | 143° |
| 2026-04-25 11:12 | 37.68731 | 44.02506 | 11147 ft | 297 kts | 141° |
| 2026-04-25 11:12 | 37.67260 | 44.04293 | 10849 ft | 289 kts | 140° |
| 2026-04-25 11:12 | 37.65823 | 44.06043 | 10551 ft | 284 kts | 140° |
| 2026-04-25 11:12 | 37.64444 | 44.07759 | 10252 ft | 277 kts | 136° |
| 2026-04-25 11:13 | 37.63220 | 44.09592 | 9963 ft | 267 kts | 132° |
| 2026-04-25 11:13 | 37.62111 | 44.11399 | 9581 ft | 253 kts | 131° |
| 2026-04-25 11:13 | 37.61055 | 44.13061 | 9082 ft | 240 kts | 136° |
| 2026-04-25 11:13 | 37.59824 | 44.14491 | 8209 ft | 244 kts | 143° |
| 2026-04-25 11:14 | 37.58659 | 44.15962 | 7709 ft | 236 kts | 132° |
| 2026-04-25 11:14 | 37.57744 | 44.17661 | 7621 ft | 236 kts | 123° |
| 2026-04-25 11:14 | 37.56972 | 44.19462 | 8320 ft | 235 kts | 121° |
| 2026-04-25 11:14 | 37.56083 | 44.21241 | 8587 ft | 251 kts | 130° |
| 2026-04-25 11:15 | 37.54976 | 44.23010 | 8666 ft | 268 kts | 133° |
| 2026-04-25 11:15 | 37.53769 | 44.24820 | 9422 ft | 271 kts | 133° |
| 2026-04-25 11:15 | 37.52596 | 44.26635 | 10331 ft | 268 kts | 132° |
| 2026-04-25 11:15 | 37.51496 | 44.28496 | 11071 ft | 272 kts | 125° |
| 2026-04-25 11:16 | 37.50866 | 44.33203 | 12386 ft | 290 kts | 77° |
| 2026-04-25 11:16 | 37.51622 | 44.35597 | 12848 ft | 304 kts | 56° |
| 2026-04-25 11:16 | 37.53036 | 44.37619 | 13200 ft | 312 kts | 38° |
| 2026-04-25 11:17 | 37.54814 | 44.39167 | 13207 ft | 309 kts | 20° |
| 2026-04-25 11:17 | 37.56849 | 44.39809 | 13211 ft | 298 kts | 358° |
| 2026-04-25 11:17 | 37.58908 | 44.39624 | 13212 ft | 293 kts | 344° |
| 2026-04-25 11:17 | 37.60825 | 44.39019 | 13202 ft | 277 kts | 335° |
| 2026-04-25 11:18 | 37.62424 | 44.37897 | 13207 ft | 254 kts | 314° |
| 2026-04-25 11:18 | 37.63581 | 44.36335 | 13213 ft | 238 kts | 303° |
| 2026-04-25 11:18 | 37.64579 | 44.34690 | 13217 ft | 235 kts | 302° |
| 2026-04-25 11:18 | 37.65573 | 44.33054 | 13210 ft | 236 kts | 303° |
| 2026-04-25 11:19 | 37.66585 | 44.31399 | 13204 ft | 236 kts | 300° |
| 2026-04-25 11:19 | 37.67334 | 44.29581 | 13207 ft | 230 kts | 286° |
| 2026-04-25 11:19 | 37.67810 | 44.27668 | 13194 ft | 230 kts | 283° |
| 2026-04-25 11:19 | 37.68271 | 44.25732 | 13192 ft | 230 kts | 284° |
| 2026-04-25 11:20 | 37.68768 | 44.23820 | 13191 ft | 231 kts | 285° |
| 2026-04-25 11:20 | 37.69288 | 44.21906 | 13202 ft | 231 kts | 286° |
| 2026-04-25 11:20 | 37.69810 | 44.19982 | 13208 ft | 231 kts | 285° |
| 2026-04-25 11:20 | 37.70325 | 44.18079 | 13214 ft | 230 kts | 285° |
| 2026-04-25 11:21 | 37.70841 | 44.16165 | 13221 ft | 229 kts | 285° |
| 2026-04-25 11:21 | 37.71350 | 44.14281 | 13231 ft | 227 kts | 285° |
| 2026-04-25 11:21 | 37.71856 | 44.12396 | 13237 ft | 229 kts | 284° |
| 2026-04-25 11:21 | 37.72365 | 44.10497 | 13237 ft | 228 kts | 284° |
| 2026-04-25 11:22 | 37.72873 | 44.08598 | 13237 ft | 227 kts | 284° |
| 2026-04-25 11:22 | 37.73209 | 44.07346 | 13238 ft | 228 kts | 284° |
| 2026-04-25 11:22 | 37.73886 | 44.04811 | 13241 ft | 227 kts | 284° |
| 2026-04-25 11:22 | 37.74395 | 44.02917 | 13244 ft | 228 kts | 284° |
| 2026-04-25 11:23 | 37.74901 | 44.01020 | 13243 ft | 228 kts | 284° |
| 2026-04-25 11:23 | 37.75407 | 43.99116 | 13241 ft | 229 kts | 284° |
| 2026-04-25 11:23 | 37.75915 | 43.97211 | 13240 ft | 229 kts | 284° |
| 2026-04-25 11:23 | 37.76421 | 43.95320 | 13238 ft | 227 kts | 285° |
| 2026-04-25 11:24 | 37.77030 | 43.93483 | 13235 ft | 231 kts | 296° |
| 2026-04-25 11:24 | 37.78099 | 43.91924 | 13248 ft | 239 kts | 314° |
| 2026-04-25 11:24 | 37.79416 | 43.90624 | 13248 ft | 242 kts | 316° |
| 2026-04-25 11:24 | 37.80738 | 43.89319 | 13245 ft | 241 kts | 315° |
| 2026-04-25 11:25 | 37.82048 | 43.87958 | 13241 ft | 240 kts | 313° |
| 2026-04-25 11:25 | 37.83313 | 43.86595 | 13249 ft | 240 kts | 313° |
| 2026-04-25 11:25 | 37.84618 | 43.85266 | 13250 ft | 243 kts | 319° |
| 2026-04-25 11:25 | 37.86196 | 43.84404 | 13250 ft | 256 kts | 345° |
| 2026-04-25 11:26 | 37.87993 | 43.84557 | 13261 ft | 270 kts | 12° |
| 2026-04-25 11:26 | 37.89697 | 43.85630 | 13268 ft | 279 kts | 32° |
| 2026-04-25 11:26 | 37.91055 | 43.87403 | 13265 ft | 286 kts | 58° |
| 2026-04-25 11:26 | 37.91607 | 43.89794 | 13267 ft | 286 kts | 92° |
| 2026-04-25 11:27 | 37.91218 | 43.92213 | 13267 ft | 279 kts | 119° |
| 2026-04-25 11:27 | 37.90214 | 43.94289 | 13260 ft | 271 kts | 136° |
| 2026-04-25 11:27 | 37.88786 | 43.95689 | 13260 ft | 255 kts | 165° |
| 2026-04-25 11:27 | 37.87684 | 43.96096 | 13271 ft | 249 kts | 177° |
| 2026-04-25 11:28 | 37.85387 | 43.96435 | 13279 ft | 250 kts | 181° |
| 2026-04-25 11:28 | 37.83569 | 43.96706 | 13142 ft | 273 kts | 178° |
| 2026-04-25 11:28 | 37.81669 | 43.97081 | 12862 ft | 277 kts | 176° |
| 2026-04-25 11:28 | 37.79761 | 43.97498 | 12266 ft | 287 kts | 175° |
| 2026-04-25 11:29 | 37.77763 | 43.97939 | 11695 ft | 294 kts | 175° |
| 2026-04-25 11:29 | 37.75777 | 43.98371 | 11492 ft | 287 kts | 175° |
| 2026-04-25 11:29 | 37.73797 | 43.98797 | 11408 ft | 289 kts | 174° |
| 2026-04-25 11:29 | 37.71830 | 43.99370 | 11295 ft | 295 kts | 165° |
| 2026-04-25 11:30 | 37.70006 | 44.00608 | 10985 ft | 303 kts | 146° |
| 2026-04-25 11:30 | 37.68459 | 44.02417 | 10491 ft | 303 kts | 137° |
| 2026-04-25 11:30 | 37.67036 | 44.04350 | 10063 ft | 298 kts | 136° |
| 2026-04-25 11:30 | 37.65630 | 44.06214 | 9671 ft | 288 kts | 138° |
| 2026-04-25 11:31 | 37.64281 | 44.08008 | 9342 ft | 277 kts | 134° |
| 2026-04-25 11:31 | 37.62960 | 44.09739 | 8856 ft | 271 kts | 142° |
| 2026-04-25 11:31 | 37.61528 | 44.11202 | 8552 ft | 259 kts | 145° |
| 2026-04-25 11:31 | 37.60163 | 44.12575 | 8237 ft | 250 kts | 143° |
| 2026-04-25 11:32 | 37.59022 | 44.14185 | 7811 ft | 240 kts | 127° |
| 2026-04-25 11:32 | 37.58268 | 44.15970 | 7402 ft | 226 kts | 118° |
| 2026-04-25 11:32 | 37.57623 | 44.17707 | 7017 ft | 212 kts | 120° |
| 2026-04-25 11:32 | 37.56951 | 44.19277 | 6760 ft | 195 kts | 122° |
| 2026-04-25 11:33 | 37.56296 | 44.20737 | 7181 ft | 189 kts | 126° |
| 2026-04-25 11:33 | 37.55595 | 44.22098 | 7784 ft | 193 kts | 128° |
| 2026-04-25 11:33 | 37.54778 | 44.23488 | 8220 ft | 206 kts | 133° |
| 2026-04-25 11:33 | 37.53762 | 44.24921 | 8444 ft | 234 kts | 136° |
| 2026-04-25 11:34 | 37.52627 | 44.26515 | 8858 ft | 256 kts | 134° |
| 2026-04-25 11:34 | 37.51514 | 44.28301 | 9601 ft | 265 kts | 125° |
| 2026-04-25 11:34 | 37.50805 | 44.30461 | 10482 ft | 271 kts | 105° |
| 2026-04-25 11:34 | 37.50679 | 44.32813 | 11236 ft | 280 kts | 84° |
| 2026-04-25 11:35 | 37.51277 | 44.35188 | 11801 ft | 293 kts | 58° |
| 2026-04-25 11:35 | 37.52663 | 44.37112 | 12350 ft | 304 kts | 36° |
| 2026-04-25 11:35 | 37.54362 | 44.38675 | 12877 ft | 309 kts | 28° |
| 2026-04-25 11:35 | 37.56329 | 44.39735 | 13081 ft | 303 kts | 7° |
| 2026-04-25 11:36 | 37.58395 | 44.39850 | 13229 ft | 297 kts | 348° |
| 2026-04-25 11:36 | 37.60376 | 44.39254 | 13220 ft | 282 kts | 335° |
| 2026-04-25 11:36 | 37.62084 | 44.38226 | 13215 ft | 261 kts | 320° |
| 2026-04-25 11:36 | 37.63339 | 44.36745 | 13219 ft | 241 kts | 304° |
| 2026-04-25 11:37 | 37.64347 | 44.35090 | 13226 ft | 234 kts | 302° |
| 2026-04-25 11:37 | 37.65335 | 44.33431 | 13229 ft | 244 kts | 303° |
| 2026-04-25 11:37 | 37.66411 | 44.31653 | 13216 ft | 268 kts | 301° |
| 2026-04-25 11:37 | 37.67348 | 44.29599 | 13218 ft | 271 kts | 290° |
| 2026-04-25 11:38 | 37.67974 | 44.27336 | 13207 ft | 270 kts | 284° |
| 2026-04-25 11:38 | 37.68498 | 44.25102 | 13209 ft | 269 kts | 284° |
| 2026-04-25 11:38 | 37.69054 | 44.22827 | 13213 ft | 270 kts | 285° |
| 2026-04-25 11:38 | 37.69640 | 44.20588 | 13223 ft | 269 kts | 285° |
| 2026-04-25 11:39 | 37.70241 | 44.18362 | 13238 ft | 270 kts | 286° |
| 2026-04-25 11:39 | 37.70974 | 44.16189 | 13243 ft | 271 kts | 296° |
| 2026-04-25 11:39 | 37.72037 | 44.14201 | 13257 ft | 274 kts | 302° |
| 2026-04-25 11:39 | 37.73175 | 44.12294 | 13262 ft | 274 kts | 302° |
| 2026-04-25 11:40 | 37.74322 | 44.10403 | 13268 ft | 265 kts | 302° |
| 2026-04-25 11:40 | 37.75407 | 44.08613 | 13264 ft | 250 kts | 302° |
| 2026-04-25 11:40 | 37.76412 | 44.06898 | 13263 ft | 236 kts | 301° |
| 2026-04-25 11:40 | 37.77361 | 44.05271 | 13277 ft | 224 kts | 301° |
| 2026-04-25 11:41 | 37.78263 | 44.03746 | 13272 ft | 209 kts | 301° |
| 2026-04-25 11:41 | 37.79114 | 44.02322 | 13274 ft | 197 kts | 301° |
| 2026-04-25 11:41 | 37.79943 | 44.00948 | 13277 ft | 198 kts | 300° |
| 2026-04-25 11:41 | 37.80454 | 43.99392 | 13272 ft | 189 kts | 267° |
| 2026-04-25 11:42 | 37.80006 | 43.97891 | 13282 ft | 191 kts | 233° |
| 2026-04-25 11:42 | 37.79065 | 43.96706 | 13281 ft | 192 kts | 227° |
| 2026-04-25 11:42 | 37.78072 | 43.95609 | 13286 ft | 183 kts | 221° |
| 2026-04-25 11:42 | 37.76977 | 43.94862 | 13277 ft | 184 kts | 201° |
| 2026-04-25 11:43 | 37.75641 | 43.95007 | 13153 ft | 206 kts | 163° |
| 2026-04-25 11:43 | 37.74431 | 43.96029 | 13022 ft | 211 kts | 147° |
| 2026-04-25 11:43 | 37.73350 | 43.97239 | 12867 ft | 200 kts | 145° |
| 2026-04-25 11:43 | 37.72325 | 43.98395 | 12570 ft | 200 kts | 146° |
| 2026-04-25 11:44 | 37.71289 | 43.99543 | 12245 ft | 194 kts | 146° |
| 2026-04-25 11:44 | 37.70324 | 44.00676 | 11905 ft | 188 kts | 143° |
| 2026-04-25 11:44 | 37.69389 | 44.01809 | 11568 ft | 182 kts | 143° |
| 2026-04-25 11:44 | 37.68488 | 44.02892 | 11241 ft | 178 kts | 143° |
| 2026-04-25 11:45 | 37.67594 | 44.03962 | 10899 ft | 179 kts | 143° |
| 2026-04-25 11:45 | 37.66700 | 44.05027 | 10556 ft | 177 kts | 143° |
| 2026-04-25 11:45 | 37.65803 | 44.06088 | 10211 ft | 176 kts | 142° |
| 2026-04-25 11:45 | 37.64910 | 44.07153 | 9873 ft | 178 kts | 143° |
| 2026-04-25 11:46 | 37.64055 | 44.08257 | 9440 ft | 177 kts | 136° |
| 2026-04-25 11:46 | 37.63292 | 44.09463 | 9024 ft | 171 kts | 136° |
| 2026-04-25 11:46 | 37.62521 | 44.10567 | 8658 ft | 167 kts | 140° |
| 2026-04-25 11:46 | 37.61752 | 44.11582 | 8373 ft | 159 kts | 141° |
| 2026-04-25 11:47 | 37.60980 | 44.12579 | 8137 ft | 158 kts | 141° |
| 2026-04-25 11:47 | 37.60229 | 44.13567 | 7952 ft | 158 kts | 139° |
| 2026-04-25 11:47 | 37.59482 | 44.14595 | 7668 ft | 158 kts | 140° |
| 2026-04-25 11:47 | 37.58794 | 44.15654 | 7406 ft | 157 kts | 137° |
| 2026-04-25 11:48 | 37.58141 | 44.16765 | 7127 ft | 157 kts | 134° |
| 2026-04-25 11:48 | 37.57545 | 44.17917 | 6883 ft | 159 kts | 129° |
| 2026-04-25 11:48 | 37.56999 | 44.19144 | 6617 ft | 159 kts | 127° |
| 2026-04-25 11:48 | 37.56484 | 44.20329 | 6433 ft | 154 kts | 127° |
| 2026-04-25 11:49 | 37.55962 | 44.21496 | 6251 ft | 154 kts | 129° |
| 2026-04-25 11:49 | 37.55448 | 44.22694 | 6096 ft | 149 kts | 124° |
| 2026-04-25 11:49 | 37.55004 | 44.23714 | 6094 ft | 110 kts | 119° |
| 2026-04-25 11:49 | 37.54733 | 44.24355 | 6095 ft | 54 kts | 121° |
| 2026-04-25 11:50 | 37.54578 | 44.24712 | 6097 ft | 42 kts | 118° |
| 2026-04-25 11:50 | 37.54444 | 44.25012 | 6096 ft | 37 kts | 116° |
| 2026-04-25 11:50 | 37.54330 | 44.25289 | 6099 ft | 29 kts | 111° |
| 2026-04-25 11:50 | 37.54362 | 44.25397 | 6100 ft | 11 kts | 23° |
| 2026-04-25 11:51 | 37.54424 | 44.25435 | 6100 ft | 7 kts | 27° |
| 2026-04-25 11:51 | 37.54456 | 44.25457 | 6101 ft | 3 kts | 30° |
| 2026-04-25 11:51 | 37.54473 | 44.25470 | 6102 ft | 1 kts | 31° |
| 2026-04-25 11:51 | 37.54476 | 44.25473 | 6102 ft | 0 kts | 31° |
| 2026-04-25 11:52 | 37.54479 | 44.25474 | 6102 ft | 0 kts | 31° |
| 2026-04-25 11:52 | 37.54479 | 44.25475 | 6102 ft | 0 kts | 31° |
| 2026-04-25 11:52 | 37.54515 | 44.25502 | 6103 ft | 8 kts | 30° |
| 2026-04-25 11:53 | 37.54563 | 44.25536 | 6103 ft | 6 kts | 28° |
| 2026-04-25 11:53 | 37.54580 | 44.25547 | 6103 ft | 1 kts | 28° |